Time;durP1;ratioP1;P1;durP2;ratioP2;P2;SDS_P1;SDS_P2;PMS_P1;PMS_P2;Temp;Humidity;BMP_temperature;BMP_pressure;BME280_temperature;BME280_humidity;BME280_pressure;Samples;Min_cycle;Max_cycle;Signal;HPM_P1;HPM_P2
2023/03/14 00:00:31;;;;;;;23.10;12.40;;;;;;;4.53;47.18;95176.09;5107229;28;20440;-70
2023/03/14 00:02:56;;;;;;;21.52;12.60;;;;;;;4.54;47.17;95168.72;5106485;28;20024;-70
2023/03/14 00:05:22;;;;;;;22.38;13.48;;;;;;;4.55;47.20;95161.31;5107537;27;20056;-70
2023/03/14 00:07:47;;;;;;;18.55;11.73;;;;;;;4.42;46.97;95155.50;5106088;28;20105;-70
2023/03/14 00:10:14;;;;;;;20.73;11.40;;;;;;;4.47;47.13;95169.50;5107627;28;20677;-70
2023/03/14 00:12:40;;;;;;;20.45;12.10;;;;;;;4.44;46.69;95159.38;5105654;28;20106;-70
2023/03/14 00:15:06;;;;;;;16.02;10.88;;;;;;;4.42;46.14;95153.56;5105931;28;20115;-70
2023/03/14 00:17:32;;;;;;;17.70;11.10;;;;;;;4.42;46.04;95147.34;5106919;28;20590;-69
2023/03/14 00:20:04;;;;;;;17.13;11.02;;;;;;;4.40;46.49;95153.16;5106062;28;20568;-71
2023/03/14 00:22:30;;;;;;;17.63;11.48;;;;;;;4.40;46.38;95145.00;5105667;28;20024;-71
2023/03/14 00:24:55;;;;;;;18.92;11.52;;;;;;;4.43;46.65;95146.19;5107132;28;20088;-71
2023/03/14 00:27:21;;;;;;;19.10;11.23;;;;;;;4.38;46.03;95133.72;5107173;28;20023;-71
2023/03/14 00:29:46;;;;;;;17.52;10.65;;;;;;;4.38;45.87;95131.00;5088709;28;20134;-71
2023/03/14 00:32:11;;;;;;;16.38;10.00;;;;;;;4.36;46.03;95133.34;5107041;28;20076;-71
2023/03/14 00:34:37;;;;;;;17.67;9.88;;;;;;;4.34;45.86;95127.50;5106563;28;20028;-71
2023/03/14 00:37:02;;;;;;;18.10;9.23;;;;;;;4.33;45.52;95128.69;5106823;28;20055;-70
2023/03/14 00:39:28;;;;;;;15.57;9.60;;;;;;;4.28;45.26;95118.19;5105221;28;20023;-71
2023/03/14 00:41:53;;;;;;;14.30;8.70;;;;;;;4.33;44.63;95125.19;5106524;28;20036;-71
2023/03/14 00:44:18;;;;;;;15.50;9.15;;;;;;;4.33;44.90;95122.47;5106844;28;20027;-70
2023/03/14 00:46:44;;;;;;;14.95;9.52;;;;;;;4.30;44.65;95118.59;5106666;28;20050;-70
2023/03/14 00:49:09;;;;;;;15.25;9.15;;;;;;;4.27;44.72;95113.91;5106820;28;20051;-71
2023/03/14 00:51:35;;;;;;;16.45;10.27;;;;;;;4.30;44.93;95120.50;5105648;28;20106;-71
2023/03/14 00:54:00;;;;;;;14.68;10.10;;;;;;;4.33;44.91;95117.03;5107314;28;20031;-72
2023/03/14 00:56:26;;;;;;;19.77;10.80;;;;;;;4.34;44.80;95113.13;5107161;28;20038;-71
2023/03/14 00:58:55;;;;;;;18.58;11.18;;;;;;;4.36;44.68;95111.59;5105578;28;20031;-71
2023/03/14 01:01:21;;;;;;;18.77;11.45;;;;;;;4.38;44.66;95111.97;5106523;27;20185;-71
2023/03/14 01:03:46;;;;;;;17.48;10.77;;;;;;;4.41;44.61;95108.44;5105114;28;20127;-71
2023/03/14 01:06:15;;;;;;;19.38;11.80;;;;;;;4.41;44.73;95103.00;5104840;28;20035;-70
2023/03/14 01:08:40;;;;;;;18.00;10.50;;;;;;;4.42;44.80;95109.25;5105861;28;20027;-71
2023/03/14 01:11:08;;;;;;;17.10;11.35;;;;;;;4.40;45.09;95106.88;5106313;28;20462;-70
2023/03/14 01:13:34;;;;;;;18.52;10.90;;;;;;;4.39;45.24;95105.34;5104421;28;20457;-69
2023/03/14 01:16:05;;;;;;;15.88;11.60;;;;;;;4.33;45.33;95095.25;5104803;28;20063;-69
2023/03/14 01:18:30;;;;;;;18.60;11.85;;;;;;;4.33;45.25;95096.03;5104379;28;20052;-70
2023/03/14 01:20:56;;;;;;;20.13;11.77;;;;;;;4.31;45.42;95082.03;5104765;28;20510;-70
2023/03/14 01:23:21;;;;;;;19.00;11.48;;;;;;;4.31;45.51;95084.00;5106314;28;20039;-72
2023/03/14 01:25:47;;;;;;;17.20;12.00;;;;;;;4.30;45.47;95079.69;5105703;28;20031;-71
2023/03/14 01:28:12;;;;;;;18.30;10.88;;;;;;;4.25;45.43;95084.38;5106476;28;20027;-71
2023/03/14 01:30:37;;;;;;;17.88;10.85;;;;;;;4.26;45.43;95077.00;5105501;28;20051;-71
2023/03/14 01:33:03;;;;;;;18.95;10.93;;;;;;;4.20;45.82;95076.63;5104719;28;20558;-69
2023/03/14 01:35:28;;;;;;;19.33;11.15;;;;;;;4.19;45.87;95068.84;5105623;28;20078;-69
2023/03/14 01:37:53;;;;;;;16.52;11.18;;;;;;;4.17;46.19;95082.84;5105796;28;20547;-70
2023/03/14 01:40:19;;;;;;;15.38;9.48;;;;;;;4.14;46.02;95078.19;5104323;28;20110;-70
2023/03/14 01:42:46;;;;;;;19.02;11.43;;;;;;;4.12;46.29;95075.06;5105160;28;20054;-70
2023/03/14 01:45:56;;;;;;;17.80;10.60;;;;;;;4.08;46.24;95066.16;5105880;28;20117;-70
2023/03/14 01:48:21;;;;;;;18.20;11.68;;;;;;;4.02;46.08;95056.84;5105213;28;20118;-70
2023/03/14 01:50:47;;;;;;;18.10;10.98;;;;;;;4.03;46.59;95060.34;5086796;28;20111;-70
2023/03/14 01:53:13;;;;;;;18.75;11.20;;;;;;;3.98;47.04;95062.28;5104092;28;20119;-70
2023/03/14 01:55:38;;;;;;;19.33;11.02;;;;;;;3.95;47.29;95063.03;5105417;28;20455;-71
2023/03/14 01:58:04;;;;;;;17.90;10.77;;;;;;;3.90;47.12;95060.75;5104285;28;20039;-71
2023/03/14 02:00:30;;;;;;;20.25;11.38;;;;;;;3.86;47.21;95054.53;5105215;28;20095;-70
2023/03/14 02:02:59;;;;;;;19.80;10.93;;;;;;;3.79;47.12;95048.31;5106663;28;20023;-70
2023/03/14 02:05:29;;;;;;;19.60;11.13;;;;;;;3.80;46.98;95049.88;5105922;28;20176;-70
2023/03/14 02:07:56;;;;;;;18.55;11.38;;;;;;;3.77;47.33;95054.13;5105116;28;20474;-70
2023/03/14 02:10:28;;;;;;;22.20;12.00;;;;;;;3.75;47.63;95051.03;5103630;28;20027;-70
2023/03/14 02:12:56;;;;;;;22.25;11.77;;;;;;;3.76;47.81;95054.53;5103561;28;20084;-70
2023/03/14 02:15:21;;;;;;;21.02;11.98;;;;;;;3.70;47.94;95051.44;5105239;28;20202;-70
2023/03/14 02:17:47;;;;;;;21.40;12.02;;;;;;;3.68;47.81;95051.03;5102496;28;20565;-70
2023/03/14 02:20:27;;;;;;;21.75;11.65;;;;;;;3.66;47.95;95047.91;5103795;28;20055;-70
2023/03/14 02:22:53;;;;;;;15.73;10.70;;;;;;;3.66;47.94;95039.75;5104839;28;20060;-69
2023/03/14 02:25:24;;;;;;;19.85;11.45;;;;;;;3.64;48.09;95042.88;5105137;28;20016;-71
2023/03/14 02:27:50;;;;;;;19.65;11.27;;;;;;;3.63;48.00;95038.63;5104774;28;20047;-69
2023/03/14 02:30:24;;;;;;;18.67;11.98;;;;;;;3.62;48.06;95049.88;5104803;28;20065;-70
2023/03/14 02:32:52;;;;;;;16.58;10.85;;;;;;;3.58;48.17;95058.03;5103377;28;20748;-70
2023/03/14 02:35:23;;;;;;;18.05;11.05;;;;;;;3.52;48.42;95047.94;5086236;28;20171;-70
2023/03/14 02:37:51;;;;;;;17.55;10.65;;;;;;;3.51;48.21;95055.31;5103024;28;20061;-69
2023/03/14 02:40:16;;;;;;;20.20;11.00;;;;;;;3.50;48.26;95055.69;5103123;28;20032;-70
2023/03/14 02:42:42;;;;;;;15.85;10.10;;;;;;;3.52;48.25;95059.59;5103065;28;20047;-69
2023/03/14 02:45:07;;;;;;;16.70;10.48;;;;;;;3.54;48.33;95065.41;5103018;28;20031;-72
2023/03/14 02:47:32;;;;;;;21.23;11.35;;;;;;;3.52;48.13;95058.81;5104751;28;20103;-71
2023/03/14 02:50:09;;;;;;;16.58;10.68;;;;;;;3.53;48.27;95049.47;5086092;28;20107;-71
2023/03/14 02:52:34;;;;;;;18.00;11.00;;;;;;;3.51;48.48;95054.53;5102889;28;20498;-70
2023/03/14 02:55:00;;;;;;;18.73;11.25;;;;;;;3.51;48.42;95055.31;5102817;28;20035;-70
2023/03/14 02:57:25;;;;;;;17.92;11.18;;;;;;;3.47;48.64;95065.41;5104483;28;20074;-70
2023/03/14 02:59:51;;;;;;;15.73;10.23;;;;;;;3.46;48.41;95066.56;5102864;28;20092;-70
2023/03/14 03:02:16;;;;;;;19.98;10.93;;;;;;;3.42;48.59;95061.13;5102924;28;20030;-70
2023/03/14 03:04:42;;;;;;;16.33;10.38;;;;;;;3.41;48.51;95064.25;5104584;28;20039;-69
2023/03/14 03:07:07;;;;;;;18.20;10.48;;;;;;;3.38;48.58;95060.38;5104752;28;20077;-71
2023/03/14 03:09:33;;;;;;;19.17;10.82;;;;;;;3.40;48.53;95054.53;5104455;28;20070;-70
2023/03/14 03:11:58;;;;;;;23.48;11.43;;;;;;;3.41;48.54;95061.53;5104462;28;20373;-69
2023/03/14 03:14:23;;;;;;;19.55;10.73;;;;;;;3.38;48.37;95057.66;5104052;28;20072;-70
2023/03/14 03:16:49;;;;;;;17.65;10.52;;;;;;;3.36;48.34;95059.19;5085884;28;20020;-70
2023/03/14 03:19:15;;;;;;;22.55;10.93;;;;;;;3.32;48.19;95059.16;5102530;28;20106;-70
2023/03/14 03:21:41;;;;;;;20.88;10.18;;;;;;;3.32;48.19;95052.97;5104355;28;20024;-69
2023/03/14 03:24:06;;;;;;;17.10;11.45;;;;;;;3.29;48.16;95059.97;5104028;28;20375;-70
2023/03/14 03:26:34;;;;;;;18.15;11.30;;;;;;;3.28;48.34;95052.97;5102850;28;20482;-70
2023/03/14 03:28:59;;;;;;;19.10;11.45;;;;;;;3.29;48.25;95059.97;5104732;28;20034;-70
2023/03/14 03:31:25;;;;;;;22.33;12.60;;;;;;;3.28;48.46;95054.91;5107971;28;20036;-70
2023/03/14 03:33:50;;;;;;;18.38;10.85;;;;;;;3.26;48.67;95051.78;5108110;27;20030;-70
2023/03/14 03:36:21;;;;;;;20.73;11.57;;;;;;;3.24;48.82;95054.91;5106303;28;20089;-70
2023/03/14 03:38:46;;;;;;;15.57;10.88;;;;;;;3.21;48.86;95055.66;5106783;28;20110;-70
2023/03/14 03:41:11;;;;;;;18.45;11.93;;;;;;;3.22;48.89;95051.81;5106172;28;20547;-70
2023/03/14 03:43:37;;;;;;;15.77;10.65;;;;;;;3.16;48.87;95054.13;5108101;28;20028;-71
2023/03/14 03:46:06;;;;;;;20.10;11.10;;;;;;;3.13;48.62;95059.53;5106504;28;20027;-70
2023/03/14 03:48:31;;;;;;;18.05;10.45;;;;;;;3.10;48.31;95058.38;5107694;28;20024;-71
2023/03/14 03:50:57;;;;;;;19.17;9.63;;;;;;;3.07;48.40;95063.81;5106422;28;20024;-70
2023/03/14 03:53:22;;;;;;;20.83;10.85;;;;;;;3.04;48.42;95059.13;5107525;28;20104;-70
2023/03/14 03:55:48;;;;;;;17.35;10.60;;;;;;;3.03;48.31;95054.88;5107787;28;20530;-70
2023/03/14 03:58:13;;;;;;;15.95;9.90;;;;;;;3.03;48.20;95063.00;5107526;28;20039;-70
2023/03/14 04:00:38;;;;;;;15.55;9.30;;;;;;;3.03;48.25;95065.72;5107863;28;20502;-70
2023/03/14 04:03:04;;;;;;;17.95;10.13;;;;;;;3.01;48.29;95060.69;5106159;28;20103;-70
2023/03/14 04:05:30;;;;;;;19.58;11.75;;;;;;;2.99;48.39;95065.75;5107667;28;20106;-70
2023/03/14 04:07:55;;;;;;;16.30;9.48;;;;;;;3.01;48.36;95068.06;5106359;28;20040;-70
2023/03/14 04:10:20;;;;;;;15.00;9.75;;;;;;;2.96;48.47;95061.06;5107078;28;20490;-70
2023/03/14 04:12:46;;;;;;;17.17;10.30;;;;;;;2.94;48.46;95055.25;5106153;28;20058;-70
2023/03/14 04:15:11;;;;;;;16.58;10.00;;;;;;;2.96;48.65;95054.84;5107098;28;20031;-70
2023/03/14 04:17:37;;;;;;;17.85;10.27;;;;;;;2.96;48.74;95047.47;5107542;28;20030;-71
2023/03/14 04:20:03;;;;;;;16.45;9.85;;;;;;;2.94;48.94;95047.09;5107295;27;20031;-71
2023/03/14 04:22:28;;;;;;;19.10;10.32;;;;;;;2.90;48.99;95040.88;5107299;28;20107;-69
2023/03/14 04:24:54;;;;;;;17.60;11.50;;;;;;;2.95;48.84;95043.22;5108460;28;20534;-70
2023/03/14 04:27:19;;;;;;;16.17;10.80;;;;;;;2.95;48.89;95037.78;5108655;28;20549;-71
2023/03/14 04:29:44;;;;;;;16.00;10.32;;;;;;;2.96;48.80;95033.13;5108849;28;20020;-70
2023/03/14 04:32:10;;;;;;;19.45;10.57;;;;;;;2.93;48.71;95030.03;5106512;28;20028;-70
2023/03/14 04:34:35;;;;;;;16.00;10.98;;;;;;;2.91;48.58;95034.28;5107209;28;20058;-70
2023/03/14 04:37:01;;;;;;;22.58;12.25;;;;;;;2.89;48.78;95023.81;5108909;28;20027;-71
2023/03/14 04:39:26;;;;;;;18.80;11.55;;;;;;;2.91;48.80;95024.19;5110707;28;20023;-70
2023/03/14 04:41:52;;;;;;;18.80;11.38;;;;;;;2.88;48.74;95016.81;5106042;28;20079;-70
2023/03/14 04:44:17;;;;;;;22.05;10.45;;;;;;;2.88;48.78;95019.53;5106653;28;20057;-71
2023/03/14 04:46:43;;;;;;;16.70;11.00;;;;;;;2.90;48.98;95019.16;5105684;28;20028;-69
2023/03/14 04:49:08;;;;;;;20.00;11.75;;;;;;;2.90;48.81;95019.94;5105286;28;20046;-69
2023/03/14 04:51:33;;;;;;;22.50;11.10;;;;;;;2.90;49.01;95014.50;5105071;28;20053;-69
2023/03/14 04:53:59;;;;;;;18.95;11.00;;;;;;;2.88;49.09;95011.41;5105156;28;20081;-69
2023/03/14 04:56:24;;;;;;;24.23;11.57;;;;;;;2.89;49.09;95012.94;5106343;28;20027;-69
2023/03/14 04:58:50;;;;;;;17.75;11.20;;;;;;;2.88;49.12;95011.41;5105016;28;20055;-70
2023/03/14 05:01:15;;;;;;;17.55;11.23;;;;;;;2.88;49.14;95008.69;5106556;28;20080;-70
2023/03/14 05:03:40;;;;;;;20.67;11.20;;;;;;;2.87;49.39;95007.13;5105441;28;20100;-70
2023/03/14 05:06:06;;;;;;;26.35;12.07;;;;;;;2.89;49.39;95012.16;5105082;28;20028;-70
2023/03/14 05:08:32;;;;;;;23.05;12.30;;;;;;;2.88;49.54;95008.69;5106474;28;20023;-71
2023/03/14 05:10:57;;;;;;;22.63;12.88;;;;;;;2.91;49.28;95017.97;5104833;28;20077;-69
2023/03/14 05:13:23;;;;;;;21.27;11.70;;;;;;;2.92;49.40;95004.03;5104751;28;20478;-69
2023/03/14 05:15:50;;;;;;;21.60;12.18;;;;;;;2.95;49.30;95007.91;5087823;28;20051;-70
2023/03/14 05:18:16;;;;;;;28.20;13.05;;;;;;;2.94;49.39;95011.78;5106145;28;20023;-69
2023/03/14 05:20:42;;;;;;;21.30;11.60;;;;;;;2.97;49.38;95011.00;5104791;28;20038;-71
2023/03/14 05:23:08;;;;;;;17.33;12.18;;;;;;;3.00;49.37;95004.81;5105054;28;20027;-70
2023/03/14 05:25:34;;;;;;;22.52;13.35;;;;;;;3.06;49.33;95003.28;5104837;28;20466;-70
2023/03/14 05:27:59;;;;;;;26.27;13.88;;;;;;;3.07;49.18;95006.75;5105815;28;20059;-69
2023/03/14 05:30:24;;;;;;;27.67;14.02;;;;;;;3.10;49.18;95008.72;5105902;28;20476;-70
2023/03/14 05:32:50;;;;;;;28.80;15.40;;;;;;;3.15;48.92;95009.13;5104388;28;20055;-70
2023/03/14 05:35:15;;;;;;;25.67;14.38;;;;;;;3.18;48.70;95007.56;5105599;28;20063;-70
2023/03/14 05:37:41;;;;;;;26.45;14.68;;;;;;;3.25;48.69;95010.25;5105407;28;20031;-71
2023/03/14 05:40:08;;;;;;;25.77;13.68;;;;;;;3.31;48.84;95013.38;5104550;28;20066;-73
2023/03/14 05:42:33;;;;;;;23.55;13.70;;;;;;;3.34;48.99;95010.66;5103770;28;20100;-70
2023/03/14 05:44:59;;;;;;;22.60;13.35;;;;;;;3.40;49.03;95008.34;5104365;28;20024;-70
2023/03/14 05:47:24;;;;;;;24.95;13.32;;;;;;;3.47;49.12;95002.88;5105797;28;20032;-70
2023/03/14 05:49:50;;;;;;;26.05;12.73;;;;;;;3.55;48.55;95004.44;5104030;28;20039;-70
2023/03/14 05:52:15;;;;;;;22.83;13.00;;;;;;;3.61;48.19;94997.47;5104632;28;20262;-70
2023/03/14 05:54:41;;;;;;;22.08;12.43;;;;;;;3.67;48.04;95004.06;5103887;28;20035;-71
2023/03/14 05:57:06;;;;;;;20.55;11.23;;;;;;;3.73;47.47;95010.66;5105582;28;20054;-70
2023/03/14 05:59:32;;;;;;;23.20;12.65;;;;;;;3.78;47.67;95008.69;5105030;28;20102;-70
2023/03/14 06:01:57;;;;;;;22.58;12.38;;;;;;;3.82;47.43;95002.06;5104359;28;20031;-70
2023/03/14 06:04:22;;;;;;;20.00;13.25;;;;;;;3.83;47.41;95000.13;5105612;28;20038;-71
2023/03/14 06:06:48;;;;;;;23.27;13.95;;;;;;;3.84;48.04;95002.47;5103884;28;20038;-70
2023/03/14 06:09:18;;;;;;;27.15;14.60;;;;;;;3.88;47.74;95002.44;5105522;28;20031;-70
2023/03/14 06:11:45;;;;;;;27.25;15.10;;;;;;;3.89;47.77;95001.28;5104901;28;20023;-70
2023/03/14 06:14:11;;;;;;;24.80;15.25;;;;;;;3.93;47.66;94994.66;5105576;28;20028;-70
2023/03/14 06:16:36;;;;;;;27.40;17.40;;;;;;;3.97;47.74;94998.16;5105050;28;20466;-71
2023/03/14 06:19:01;;;;;;;25.23;16.27;;;;;;;4.00;47.20;95000.09;5104965;28;20103;-71
2023/03/14 06:21:27;;;;;;;28.60;15.73;;;;;;;4.06;46.89;95005.13;5103444;28;20446;-71
2023/03/14 06:23:52;;;;;;;27.58;16.98;;;;;;;4.10;46.82;95006.66;5104161;28;20088;-72
2023/03/14 06:26:18;;;;;;;32.72;19.45;;;;;;;4.18;46.96;95010.91;5105411;27;20427;-70
2023/03/14 06:28:43;;;;;;;42.55;24.25;;;;;;;4.25;46.80;95013.63;5104573;28;20096;-72
2023/03/14 06:31:08;;;;;;;36.70;25.02;;;;;;;4.34;46.62;95009.69;5105172;28;20023;-70
2023/03/14 06:33:34;;;;;;;31.85;21.92;;;;;;;4.38;46.26;95008.53;5104636;28;20497;-70
2023/03/14 06:35:59;;;;;;;38.20;19.33;;;;;;;4.41;46.02;95009.66;5104843;28;20030;-71
2023/03/14 06:38:25;;;;;;;34.40;18.95;;;;;;;4.44;46.17;95004.22;5104762;28;20042;-70
2023/03/14 06:40:50;;;;;;;27.00;17.52;;;;;;;4.49;46.09;95005.75;5103672;28;20484;-70
2023/03/14 06:43:16;;;;;;;28.65;16.05;;;;;;;4.55;45.99;95003.41;5104720;28;20036;-70
2023/03/14 06:45:41;;;;;;;27.30;16.30;;;;;;;4.64;45.81;95004.50;5104587;28;20032;-71
2023/03/14 06:48:06;;;;;;;27.50;15.32;;;;;;;4.66;45.56;94985.84;5104087;28;20102;-70
2023/03/14 06:50:32;;;;;;;27.77;16.67;;;;;;;4.76;45.57;94993.19;5104661;28;20034;-70
2023/03/14 06:52:57;;;;;;;28.02;15.80;;;;;;;4.80;45.30;94987.69;5104344;28;20028;-70
2023/03/14 06:55:22;;;;;;;28.63;16.85;;;;;;;4.90;45.18;94973.25;5104649;28;20059;-69
2023/03/14 06:57:48;;;;;;;24.38;16.35;;;;;;;5.01;44.71;94978.63;5104695;28;20036;-70
2023/03/14 07:00:14;;;;;;;31.40;16.73;;;;;;;5.13;44.04;94975.41;5103466;28;20027;-70
2023/03/14 07:02:40;;;;;;;26.33;15.77;;;;;;;5.28;43.99;94978.84;5107326;28;20098;-70
2023/03/14 07:05:06;;;;;;;25.40;15.88;;;;;;;5.35;43.51;94967.84;5112328;28;20050;-70
2023/03/14 07:07:31;;;;;;;23.55;16.33;;;;;;;5.43;43.39;94968.56;5107397;28;20043;-69
2023/03/14 07:09:56;;;;;;;30.10;16.60;;;;;;;5.52;43.38;94972.38;5109082;28;20407;-69
2023/03/14 07:12:22;;;;;;;31.05;17.63;;;;;;;5.67;43.04;94977.69;5107095;28;20066;-70
2023/03/14 07:14:47;;;;;;;30.92;16.63;;;;;;;5.72;43.03;94980.00;5108678;28;20139;-69
2023/03/14 07:17:13;;;;;;;26.90;15.77;;;;;;;5.82;42.65;94977.16;5108466;28;20057;-70
2023/03/14 07:19:38;;;;;;;27.42;16.73;;;;;;;5.91;42.33;94982.19;5108714;28;20102;-70
2023/03/14 07:22:07;;;;;;;28.48;16.15;;;;;;;5.97;42.32;94972.38;5108236;28;20444;-69
2023/03/14 07:24:32;;;;;;;20.35;13.40;;;;;;;6.12;41.93;94973.75;5108494;28;20020;-70
2023/03/14 07:26:57;;;;;;;24.10;15.50;;;;;;;6.26;41.19;94969.34;5108430;28;20081;-69
2023/03/14 07:29:23;;;;;;;28.17;15.73;;;;;;;6.34;41.24;94955.19;5108519;27;20027;-71
2023/03/14 07:31:48;;;;;;;27.83;16.73;;;;;;;6.45;40.97;94952.31;5108310;28;20095;-70
2023/03/14 07:34:14;;;;;;;25.05;15.02;;;;;;;6.53;41.11;94948.28;5107119;28;20534;-71
2023/03/14 07:36:39;;;;;;;26.33;15.68;;;;;;;6.69;40.46;94946.94;5107127;28;20034;-70
2023/03/14 07:39:05;;;;;;;31.90;16.90;;;;;;;6.78;40.70;94950.72;5108519;28;20078;-71
2023/03/14 07:41:31;;;;;;;23.05;14.68;;;;;;;6.91;39.97;94948.19;5106696;28;20055;-70
2023/03/14 07:43:56;;;;;;;28.98;15.48;;;;;;;7.11;39.58;94948.25;5108041;27;20043;-71
2023/03/14 07:46:22;;;;;;;25.95;16.52;;;;;;;7.21;39.15;94941.88;5108080;28;20038;-71
2023/03/14 07:48:47;;;;;;;30.73;17.77;;;;;;;7.31;39.24;94948.38;5106838;28;20124;-73
2023/03/14 07:51:13;;;;;;;28.75;16.70;;;;;;;7.34;39.02;94947.53;5107843;28;20023;-71
2023/03/14 07:53:39;;;;;;;31.40;16.48;;;;;;;7.27;38.97;94950.38;5107743;28;20104;-72
2023/03/14 07:56:05;;;;;;;27.58;16.80;;;;;;;7.35;39.26;94943.63;5108098;28;20546;-71
2023/03/14 07:58:30;;;;;;;27.45;15.85;;;;;;;7.45;38.88;94934.44;5107684;28;20019;-77
2023/03/14 08:00:58;;;;;;;23.70;15.25;;;;;;;7.64;38.55;94943.91;5089902;28;20028;-75
2023/03/14 08:03:23;;;;;;;29.05;15.15;;;;;;;7.79;38.14;94936.97;5106677;28;20032;-71
2023/03/14 08:05:50;;;;;;;22.02;14.98;;;;;;;7.93;37.71;94927.75;5108000;28;20057;-71
2023/03/14 08:08:15;;;;;;;23.30;16.05;;;;;;;8.06;37.70;94930.63;5105808;28;20027;-70
2023/03/14 08:10:41;;;;;;;26.23;15.93;;;;;;;8.17;37.95;94929.22;5107881;28;20050;-69
2023/03/14 08:13:06;;;;;;;19.90;13.95;;;;;;;8.41;37.24;94929.94;5105819;28;20484;-70
2023/03/14 08:15:32;;;;;;;20.30;13.68;;;;;;;8.61;36.31;94934.66;5106454;28;20449;-69
2023/03/14 08:17:57;;;;;;;23.48;14.60;;;;;;;8.78;35.90;94928.78;5107169;28;20027;-71
2023/03/14 08:20:27;;;;;;;23.75;14.13;;;;;;;9.02;35.34;94928.66;5106195;28;20047;-70
2023/03/14 08:22:52;;;;;;;25.83;14.80;;;;;;;9.31;35.30;94932.25;5105905;28;20055;-71
2023/03/14 08:25:18;;;;;;;21.48;15.25;;;;;;;9.62;34.55;94933.88;5105682;28;20148;-70
2023/03/14 08:27:43;;;;;;;23.13;14.38;;;;;;;9.82;34.00;94929.81;5108033;28;20107;-69
2023/03/14 08:30:11;;;;;;;27.77;14.32;;;;;;;10.00;33.69;94928.59;5106942;28;20036;-69
2023/03/14 08:32:37;;;;;;;21.85;13.52;;;;;;;10.16;32.44;94930.53;5107115;28;20115;-73
2023/03/14 08:35:03;;;;;;;21.10;14.43;;;;;;;10.40;32.52;94914.56;5088503;28;20119;-71
2023/03/14 08:37:28;;;;;;;22.60;14.20;;;;;;;10.68;32.58;94915.72;5107336;28;20046;-70
2023/03/14 08:39:54;;;;;;;23.67;14.38;;;;;;;11.03;32.00;94913.88;5105718;28;20135;-70
2023/03/14 08:42:20;;;;;;;22.60;14.50;;;;;;;11.37;30.99;94902.19;5105310;28;20139;-70
2023/03/14 08:44:45;;;;;;;21.63;14.48;;;;;;;11.60;30.93;94901.81;5107255;27;20060;-69
2023/03/14 08:47:11;;;;;;;17.33;13.63;;;;;;;11.90;30.53;94897.69;5105155;28;20421;-70
2023/03/14 08:49:36;;;;;;;17.95;12.68;;;;;;;12.29;29.97;94897.53;5105613;28;20172;-70
2023/03/14 08:52:03;;;;;;;18.10;11.45;;;;;;;12.60;29.08;94883.78;5105226;28;20019;-70
2023/03/14 08:54:29;;;;;;;15.10;10.13;;;;;;;12.96;28.22;94883.97;5106743;28;20032;-71
2023/03/14 08:56:54;;;;;;;12.50;8.60;;;;;;;13.10;27.33;94885.38;5106772;28;20050;-69
2023/03/14 08:59:20;;;;;;;15.88;8.43;;;;;;;13.37;26.60;94878.47;5106624;28;20379;-71
2023/03/14 09:01:45;;;;;;;11.95;8.48;;;;;;;13.73;26.40;94872.22;5107033;28;20047;-70
2023/03/14 09:04:10;;;;;;;15.50;8.70;;;;;;;13.98;25.65;94863.63;5104935;28;20105;-70
2023/03/14 09:06:36;;;;;;;12.38;7.75;;;;;;;14.25;25.74;94867.63;5105404;28;20034;-71
2023/03/14 09:09:02;;;;;;;14.90;7.68;;;;;;;14.55;25.96;94849.31;5106565;28;20044;-70
2023/03/14 09:11:27;;;;;;;10.88;7.72;;;;;;;14.90;25.17;94846.88;5104811;28;20028;-71
2023/03/14 09:13:53;;;;;;;8.75;6.70;;;;;;;15.27;24.47;94850.28;5104909;28;20028;-72
2023/03/14 09:16:18;;;;;;;10.48;6.95;;;;;;;15.69;24.20;94846.66;5106616;28;20031;-70
2023/03/14 09:18:43;;;;;;;10.10;6.50;;;;;;;16.06;23.34;94838.84;5105372;28;20493;-70
2023/03/14 09:21:09;;;;;;;9.55;6.05;;;;;;;16.38;22.86;94839.94;5106093;28;20023;-70
2023/03/14 09:23:34;;;;;;;9.80;5.28;;;;;;;16.50;21.51;94826.25;5105225;28;20359;-71
2023/03/14 09:26:00;;;;;;;7.25;4.72;;;;;;;16.48;21.20;94817.66;5106181;28;20027;-70
2023/03/14 09:28:27;;;;;;;9.05;5.30;;;;;;;16.55;21.60;94820.81;5104867;28;20626;-70
2023/03/14 09:30:54;;;;;;;6.35;4.63;;;;;;;16.84;21.65;94808.19;5104644;28;20252;-70
2023/03/14 09:33:19;;;;;;;11.57;5.03;;;;;;;17.18;21.30;94815.75;5106071;28;20032;-70
2023/03/14 09:35:45;;;;;;;8.00;5.15;;;;;;;17.54;20.62;94822.06;5108507;28;20026;-70
2023/03/14 09:38:10;;;;;;;7.38;5.53;;;;;;;17.89;20.13;94804.56;5108468;28;20518;-70
2023/03/14 09:40:37;;;;;;;9.45;5.10;;;;;;;18.22;20.38;94806.97;5106934;28;20110;-70
2023/03/14 09:43:03;;;;;;;8.02;5.40;;;;;;;18.56;19.63;94796.94;5104225;28;20118;-70
2023/03/14 09:45:32;;;;;;;8.48;5.85;;;;;;;18.66;19.42;94786.38;5104482;28;20079;-70
2023/03/14 09:47:58;;;;;;;8.63;5.57;;;;;;;18.88;19.33;94786.59;5105622;28;20543;-70
2023/03/14 09:50:25;;;;;;;6.38;4.93;;;;;;;19.07;19.45;94778.63;5104165;28;20028;-71
2023/03/14 09:52:53;;;;;;;7.63;5.63;;;;;;;19.37;19.08;94771.44;5105605;27;20027;-70
2023/03/14 09:55:21;;;;;;;9.07;5.35;;;;;;;19.60;18.60;94772.34;5104127;28;20402;-70
2023/03/14 09:57:50;;;;;;;7.80;5.88;;;;;;;19.83;18.98;94770.41;5087411;28;20028;-70
2023/03/14 10:00:21;;;;;;;7.63;5.40;;;;;;;20.20;18.58;94769.53;5104062;28;20099;-71
2023/03/14 10:02:52;;;;;;;8.70;5.28;;;;;;;20.58;18.23;94759.69;5104462;28;20118;-71
2023/03/14 10:05:21;;;;;;;6.45;4.90;;;;;;;20.87;17.26;94758.44;5103826;28;20076;-71
2023/03/14 10:07:47;;;;;;;6.68;5.45;;;;;;;21.01;16.65;94753.84;5105355;28;20034;-69
2023/03/14 10:10:17;;;;;;;10.48;4.90;;;;;;;21.22;17.27;94740.34;5103953;28;20027;-70
2023/03/14 10:12:45;;;;;;;6.25;4.93;;;;;;;21.59;17.03;94742.03;5104193;28;20042;-71
2023/03/14 10:15:14;;;;;;;5.82;4.70;;;;;;;21.92;16.74;94732.75;5104011;28;20027;-70
2023/03/14 10:17:41;;;;;;;6.95;4.90;;;;;;;22.24;16.56;94724.69;5103622;28;20062;-71
2023/03/14 10:20:14;;;;;;;10.75;6.97;;;;;;;22.61;16.47;94717.81;5104168;28;20399;-70
2023/03/14 10:22:40;;;;;;;14.60;7.15;;;;;;;22.92;16.36;94716.56;5103149;28;20043;-70
2023/03/14 10:25:09;;;;;;;9.80;7.40;;;;;;;23.26;15.47;94714.19;5103792;28;20068;-71
2023/03/14 10:27:35;;;;;;;7.53;5.60;;;;;;;23.56;15.26;94703.63;5103328;28;20035;-71
2023/03/14 10:30:08;;;;;;;7.75;4.70;;;;;;;23.36;14.14;94700.56;5103832;28;20394;-69
2023/03/14 10:32:38;;;;;;;11.00;5.43;;;;;;;23.51;14.95;94692.47;5103453;28;20027;-71
2023/03/14 10:35:07;;;;;;;7.00;5.18;;;;;;;23.53;14.60;94684.31;5103537;28;20036;-71
2023/03/14 10:37:32;;;;;;;8.85;4.75;;;;;;;23.78;14.80;94677.38;5103089;28;20172;-70
2023/03/14 10:40:05;;;;;;;5.57;4.18;;;;;;;23.87;14.76;94672.69;5104372;28;20024;-71
2023/03/14 10:42:39;;;;;;;6.30;4.70;;;;;;;23.88;14.08;94663.72;5086399;28;20448;-71
2023/03/14 10:45:20;;;;;;;6.38;4.85;;;;;;;23.98;14.20;94650.81;5103289;28;20035;-72
2023/03/14 10:47:50;;;;;;;6.70;4.30;;;;;;;24.02;14.43;94650.50;5103252;28;20581;-70
2023/03/14 10:50:27;;;;;;;7.75;4.10;;;;;;;24.50;13.99;94641.09;5086786;28;20023;-71
2023/03/14 10:52:54;;;;;;;8.32;4.57;;;;;;;24.87;13.69;94645.81;5103360;28;20114;-72
2023/03/14 10:55:20;;;;;;;6.15;4.10;;;;;;;25.30;13.52;94632.78;5103872;28;20115;-70
2023/03/14 10:57:45;;;;;;;7.40;5.10;;;;;;;25.59;13.35;94639.38;5105338;28;20047;-70
2023/03/14 11:00:16;;;;;;;7.95;5.15;;;;;;;26.10;13.23;94628.53;5104015;28;20058;-71
2023/03/14 11:02:49;;;;;;;7.53;5.95;;;;;;;26.46;13.25;94622.31;5104522;28;20019;-71
2023/03/14 11:05:24;;;;;;;10.95;5.63;;;;;;;27.01;13.28;94616.53;5104439;28;20038;-71
2023/03/14 11:07:52;;;;;;;9.25;5.35;;;;;;;27.51;12.66;94605.94;5104574;28;20566;-71
2023/03/14 11:10:37;;;;;;;6.22;4.70;;;;;;;27.93;12.59;94605.75;5103004;28;20031;-70
2023/03/14 11:13:06;;;;;;;7.13;5.13;;;;;;;28.88;12.00;94594.22;5103483;28;20034;-71
2023/03/14 11:15:36;;;;;;;6.60;4.90;;;;;;;29.13;11.13;94591.56;5104270;28;20031;-71
2023/03/14 11:18:29;;;;;;;8.50;4.88;;;;;;;30.14;11.20;94588.59;5103384;28;20024;-70
2023/03/14 11:20:59;;;;;;;6.97;4.97;;;;;;;30.86;10.45;94577.69;5103325;28;20448;-71
2023/03/14 11:23:40;;;;;;;8.55;4.93;;;;;;;32.23;9.96;94567.63;5103675;28;20028;-70